createdAt,value
2022-07-25T00:03:13.964Z,95503.4
2022-07-25T00:04:20.915Z,95504.9
2022-07-25T00:05:24.816Z,95500.5
2022-07-25T00:06:27.285Z,95499.8
2022-07-25T00:07:29.486Z,95497.4
2022-07-25T00:08:31.951Z,95498.7
2022-07-25T00:09:34.428Z,95495.7
2022-07-25T00:10:36.343Z,95497.3
2022-07-25T00:11:38.549Z,95495.2
2022-07-25T00:12:41.040Z,95491.7
2022-07-25T00:13:42.950Z,95491.1
2022-07-25T00:14:45.145Z,95495
2022-07-25T00:15:47.733Z,95494.6
2022-07-25T00:16:49.503Z,95494
2022-07-25T00:17:51.702Z,95492.8
2022-07-25T00:18:53.669Z,95489.9
2022-07-25T00:19:56.144Z,95492.5
2022-07-25T00:20:58.350Z,95490.6
2022-07-25T00:22:00.850Z,95486.2
2022-07-25T00:23:03.318Z,95487.9
2022-07-25T00:24:07.342Z,95486.3
2022-07-25T00:25:10.333Z,95488.1
2022-07-25T00:26:12.541Z,95488.7
2022-07-25T00:27:14.451Z,95488.2
2022-07-25T00:28:16.644Z,95482.8
2022-07-25T00:29:18.865Z,95487
2022-07-25T00:30:21.615Z,95481.1
2022-07-25T00:31:24.287Z,95480.2
2022-07-25T00:32:26.335Z,95480.3
2022-07-25T00:33:28.814Z,95480.6
2022-07-25T00:34:31.005Z,95476.3
2022-07-25T00:35:33.496Z,95479.9
2022-07-25T00:36:35.157Z,95481.1
2022-07-25T00:37:37.058Z,95481.7
2022-07-25T00:38:39.537Z,95478.3
2022-07-25T00:39:41.716Z,95475.6
2022-07-25T00:40:44.206Z,95481.9
2022-07-25T00:41:46.697Z,95473.6
2022-07-25T00:42:49.177Z,95478.9
2022-07-25T00:43:51.103Z,95475.4
2022-07-25T00:44:53.302Z,95474.5
2022-07-25T00:45:57.511Z,95470.5
2022-07-25T00:47:00.103Z,95467.8
2022-07-25T00:48:02.319Z,95472.4
2022-07-25T00:49:05.269Z,95467.9
2022-07-25T00:50:08.850Z,95469
2022-07-25T00:51:10.793Z,95470.8
2022-07-25T00:52:12.986Z,95468.4
2022-07-25T00:53:15.703Z,95470.6
2022-07-25T00:54:17.626Z,95466.9
2022-07-25T00:55:19.829Z,95465.5
2022-07-25T00:56:22.309Z,95465.9
2022-07-25T00:57:24.512Z,95465.3
2022-07-25T00:58:26.433Z,95465.3
2022-07-25T00:59:28.639Z,95464.3
2022-07-25T01:00:31.461Z,95463.3
2022-07-25T01:01:33.700Z,95463.5
2022-07-25T01:02:36.529Z,95459.9
2022-07-25T01:03:38.947Z,95460.9
2022-07-25T01:04:41.446Z,95459.1
2022-07-25T01:05:43.644Z,95461.3
2022-07-25T01:06:45.852Z,95460.7
2022-07-25T01:07:47.490Z,95462.5
2022-07-25T01:08:49.679Z,95463.6
2022-07-25T01:09:51.317Z,95457.9
2022-07-25T01:10:53.759Z,95462
2022-07-25T01:11:56.226Z,95459.5
2022-07-25T01:12:58.145Z,95458.9
2022-07-25T01:14:00.631Z,95456.5
2022-07-25T01:15:03.120Z,95456.2
2022-07-25T01:16:05.956Z,95454.2
2022-07-25T01:17:08.661Z,95454.2
2022-07-25T01:18:10.861Z,95454.2
2022-07-25T01:19:13.060Z,95455.1
2022-07-25T01:20:15.252Z,95451.7
2022-07-25T01:21:17.724Z,95453.5
2022-07-25T01:22:20.225Z,95455.5
2022-07-25T01:23:22.697Z,95450.9
2022-07-25T01:24:25.158Z,95453.2
2022-07-25T01:25:27.635Z,95454.5
2022-07-25T01:26:29.831Z,95452
2022-07-25T01:27:32.038Z,95452.2
2022-07-25T01:28:34.512Z,95451.5
2022-07-25T01:29:37.307Z,95450.2
2022-07-25T01:30:40.103Z,95449.4
2022-07-25T01:31:42.528Z,95448.3
2022-07-25T01:32:44.705Z,95445.3
2022-07-25T01:33:46.929Z,95441.5
2022-07-25T01:34:48.560Z,95445.6
2022-07-25T01:35:50.792Z,95439.9
2022-07-25T01:36:52.697Z,95435.8
2022-07-25T01:37:54.904Z,95434
2022-07-25T01:38:57.376Z,95436.4
2022-07-25T01:39:59.850Z,95435.7
2022-07-25T01:41:02.043Z,95437.4
2022-07-25T01:42:03.981Z,95435.2
2022-07-25T01:43:06.470Z,95433.3
2022-07-25T01:44:10.538Z,95434.1
2022-07-25T01:45:12.754Z,95436.4
2022-07-25T01:46:15.276Z,95433.5
2022-07-25T01:47:17.946Z,95437.6
2022-07-25T01:48:21.132Z,95435
2022-07-25T01:49:23.029Z,95433.7
2022-07-25T01:50:25.505Z,95433.4
2022-07-25T01:51:28.059Z,95436.6
2022-07-25T01:52:30.255Z,95434.8
2022-07-25T01:53:31.908Z,95438.2
2022-07-25T01:54:34.578Z,95433.7
2022-07-25T01:55:38.381Z,95434.6
2022-07-25T01:56:42.189Z,95430
2022-07-25T01:57:52.682Z,95432.8
2022-07-25T01:58:54.447Z,95431.5
2022-07-25T01:59:56.641Z,95430.9
2022-07-25T02:00:59.469Z,95427.1
2022-07-25T02:02:02.206Z,95428.5
2022-07-25T02:03:04.205Z,95429
2022-07-25T02:04:07.958Z,95424.8
2022-07-25T02:05:11.287Z,95424.9
2022-07-25T02:06:14.054Z,95424.2
2022-07-25T02:07:16.529Z,95419.4
2022-07-25T02:08:19.133Z,95427.9
2022-07-25T02:09:21.063Z,95420.4
2022-07-25T02:10:23.530Z,95417.9
2022-07-25T02:11:25.730Z,95420.6
2022-07-25T02:12:28.199Z,95417.1
2022-07-25T02:13:30.684Z,95415.8
2022-07-25T02:14:32.600Z,95416.8
2022-07-25T02:15:34.790Z,95414.9
2022-07-25T02:16:36.929Z,95411.1
2022-07-25T02:17:40.167Z,95409
2022-07-25T02:18:42.089Z,95407.6
2022-07-25T02:19:44.597Z,95406.8
2022-07-25T02:20:46.249Z,95405.9
2022-07-25T02:21:48.716Z,95408.6
2022-07-25T02:22:51.183Z,95407.6
2022-07-25T02:23:53.091Z,95409.8
2022-07-25T02:24:55.582Z,95408.2
2022-07-25T02:25:57.792Z,95408.4
2022-07-25T02:27:00.591Z,95405.8
2022-07-25T02:28:02.526Z,95406.6
2022-07-25T02:29:04.998Z,95405.8
2022-07-25T02:30:07.199Z,95404.3
2022-07-25T02:31:09.877Z,95400.1
2022-07-25T02:32:12.200Z,95399.4
2022-07-25T02:33:14.685Z,95400
2022-07-25T02:34:16.883Z,95400.8
2022-07-25T02:35:18.243Z,95403.1
2022-07-25T02:36:20.459Z,95403.1
2022-07-25T02:37:23.086Z,95400
2022-07-25T02:38:25.559Z,95404.1
2022-07-25T02:39:27.783Z,95406.6
2022-07-25T02:40:29.965Z,95406.6
2022-07-25T02:41:32.159Z,95411.1
2022-07-25T02:42:34.354Z,95407.6
2022-07-25T02:43:36.825Z,95407.3
2022-07-25T02:44:39.299Z,95406.7
2022-07-25T02:45:41.998Z,95406.6
2022-07-25T02:46:47.405Z,95404.2
2022-07-25T02:47:49.611Z,95405.9
2022-07-25T02:48:52.195Z,95408.4
2022-07-25T02:49:54.519Z,95407.6
2022-07-25T02:50:56.717Z,95406
2022-07-25T02:51:58.654Z,95407.8
2022-07-25T02:53:00.848Z,95409.8
2022-07-25T02:54:03.339Z,95408.8
2022-07-25T02:56:10.683Z,95406.2
2022-07-25T02:57:12.608Z,95410.1
2022-07-25T02:58:14.520Z,95406.7
2022-07-25T02:59:16.741Z,95408.8
2022-07-25T03:00:18.936Z,95408.4
2022-07-25T03:01:21.868Z,95405.6
2022-07-25T03:02:24.420Z,95402.5
2022-07-25T03:03:28.175Z,95403
2022-07-25T03:04:31.171Z,95403.3
2022-07-25T03:05:33.738Z,95406.3
2022-07-25T03:06:36.661Z,95402
2022-07-25T03:07:39.139Z,95403.9
2022-07-25T03:08:41.331Z,95404.8
2022-07-25T03:09:43.817Z,95402.4
2022-07-25T03:10:45.719Z,95401.5
2022-07-25T03:11:47.930Z,95406.1
2022-07-25T03:12:50.120Z,95404.8
2022-07-25T03:13:52.657Z,95407.4
2022-07-25T03:14:54.570Z,95411.5
2022-07-25T03:15:56.777Z,95413.2
2022-07-25T03:16:59.125Z,95414.8
2022-07-25T03:18:01.179Z,95410.6
2022-07-25T03:19:03.371Z,95411.9
2022-07-25T03:20:05.839Z,95412.8
2022-07-25T03:21:08.040Z,95409.9
2022-07-25T03:22:10.250Z,95413.3
2022-07-25T03:23:12.442Z,95404
2022-07-25T03:24:14.674Z,95403.8
2022-07-25T03:26:22.152Z,95407.9
2022-07-25T03:27:24.629Z,95407.3
2022-07-25T03:28:27.090Z,95408.3
2022-07-25T03:29:29.010Z,95405
2022-07-25T03:30:31.492Z,95407.3
2022-07-25T03:31:33.946Z,95407.4
2022-07-25T03:32:36.301Z,95406.9
2022-07-25T03:33:38.513Z,95403.7
2022-07-25T03:34:40.981Z,95404.6
2022-07-25T03:35:43.460Z,95402.4
2022-07-25T03:36:45.934Z,95403.3
2022-07-25T03:37:48.423Z,95401.7
2022-07-25T03:38:50.606Z,95401.9
2022-07-25T03:39:53.095Z,95401.2
2022-07-25T03:40:55.574Z,95400.4
2022-07-25T03:41:57.777Z,95396.2
2022-07-25T03:42:59.970Z,95396.8
2022-07-25T03:44:02.611Z,95394.8
2022-07-25T03:45:05.938Z,95396.2
2022-07-25T03:46:08.718Z,95397.9
2022-07-25T03:48:15.809Z,95394.2
2022-07-25T03:49:18.297Z,95393.3
2022-07-25T03:50:19.973Z,95386.6
2022-07-25T03:51:22.178Z,95390.5
2022-07-25T03:52:24.376Z,95389.9
2022-07-25T03:53:26.575Z,95393.1
2022-07-25T03:54:28.762Z,95390.9
2022-07-25T03:55:30.917Z,95398.5
2022-07-25T03:56:32.845Z,95400.8
2022-07-25T03:57:35.045Z,95397.6
2022-07-25T03:58:36.685Z,95399.7
2022-07-25T03:59:38.892Z,95404.4
2022-07-25T04:00:41.683Z,95401.9
2022-07-25T04:01:43.851Z,95401.9
2022-07-25T04:02:46.571Z,95396.9
2022-07-25T04:03:48.592Z,95396
2022-07-25T04:04:51.063Z,95396.6
2022-07-25T04:05:53.258Z,95399.5
2022-07-25T04:06:55.725Z,95395.5
2022-07-25T04:07:57.929Z,95395.2
2022-07-25T04:08:59.565Z,95393.6
2022-07-25T04:10:01.795Z,95391.6
2022-07-25T04:11:04.285Z,95388.6
2022-07-25T04:12:06.779Z,95391.9
2022-07-25T04:13:08.948Z,95389.1
2022-07-25T04:14:12.010Z,95390.9
2022-07-25T04:15:14.198Z,95392.2
2022-07-25T04:18:31.823Z,95396
2022-07-25T04:19:38.026Z,95392.6
2022-07-25T04:20:39.948Z,95386.7
2022-07-25T04:21:42.419Z,95389.1
2022-07-25T04:23:49.048Z,95388
2022-07-25T04:24:51.523Z,95387.4
2022-07-25T04:25:53.715Z,95384.4
2022-07-25T04:26:55.920Z,95383.4
2022-07-25T04:27:58.821Z,95384
2022-07-25T04:29:01.295Z,95386.8
2022-07-25T04:30:03.755Z,95381.2
2022-07-25T04:31:05.684Z,95377
2022-07-25T04:32:08.266Z,95382.5
2022-07-25T04:33:10.872Z,95377.1
2022-07-25T04:34:13.341Z,95374.5
2022-07-25T04:35:15.829Z,95376.1
2022-07-25T04:36:18.049Z,95375
2022-07-25T04:37:20.599Z,95374
2022-07-25T04:38:22.793Z,95375.4
2022-07-25T04:39:25.727Z,95371.7
2022-07-25T04:40:28.196Z,95372.3
2022-07-25T04:41:30.675Z,95376.3
2022-07-25T04:42:33.147Z,95380.2
2022-07-25T04:43:35.622Z,95376.6
2022-07-25T04:44:37.824Z,95376.3
2022-07-25T04:45:40.356Z,95373.1
2022-07-25T04:46:42.942Z,95370.9
2022-07-25T04:47:45.131Z,95373.2
2022-07-25T04:48:49.400Z,95372.1
2022-07-25T04:49:51.469Z,95375.8
2022-07-25T04:50:53.673Z,95370.4
2022-07-25T04:51:55.335Z,95368.4
2022-07-25T04:52:57.234Z,95372.1
2022-07-25T04:53:59.718Z,95368.6
2022-07-25T04:55:02.199Z,95372.7
2022-07-25T04:56:04.686Z,95370.9
2022-07-25T04:57:07.154Z,95366.8
2022-07-25T04:58:09.635Z,95366.9
2022-07-25T04:59:12.102Z,95366.5
2022-07-25T05:00:16.512Z,95364.5
2022-07-25T05:01:20.731Z,95363
2022-07-25T05:02:23.436Z,95363.2
2022-07-25T05:03:25.475Z,95363.4
2022-07-25T05:04:27.981Z,95365
2022-07-25T05:05:30.825Z,95361.8
2022-07-25T05:06:32.474Z,95362
2022-07-25T05:07:34.382Z,95361.7
2022-07-25T05:08:36.880Z,95366.9
2022-07-25T05:09:39.079Z,95364.6
2022-07-25T05:10:40.439Z,95365.1
2022-07-25T05:12:47.641Z,95362.9
2022-07-25T05:13:49.996Z,95362.4
2022-07-25T05:14:52.483Z,95366
2022-07-25T05:15:55.253Z,95364.7
2022-07-25T05:16:57.731Z,95361.4
2022-07-25T05:18:00.200Z,95360
2022-07-25T05:19:02.117Z,95359.3
2022-07-25T05:20:04.044Z,95360.4
2022-07-25T05:21:06.410Z,95358.4
2022-07-25T05:22:09.033Z,95359.9
2022-07-25T05:23:11.088Z,95358
2022-07-25T05:24:13.579Z,95360.2
2022-07-25T05:25:15.522Z,95363.5
2022-07-25T05:26:17.748Z,95359.6
2022-07-25T05:27:19.955Z,95361.1
2022-07-25T05:28:21.885Z,95360.2
2022-07-25T05:29:23.809Z,95361.9
2022-07-25T05:30:26.259Z,95359.8
2022-07-25T05:31:30.157Z,95362.7
2022-07-25T05:32:32.798Z,95363.8
2022-07-25T05:33:35.268Z,95363.2
2022-07-25T05:34:37.474Z,95357
2022-07-25T05:35:39.946Z,95360.1
2022-07-25T05:37:47.414Z,95360.1
2022-07-25T05:38:49.350Z,95361.6
2022-07-25T05:39:51.541Z,95360.1
2022-07-25T05:40:53.745Z,95357.8
2022-07-25T05:41:55.944Z,95361.1
2022-07-25T05:44:03.073Z,95362.1
2022-07-25T05:45:04.941Z,95359.8
2022-07-25T05:46:07.269Z,95358.5
2022-07-25T05:47:10.036Z,95356
2022-07-25T05:48:12.628Z,95357.8
2022-07-25T05:49:15.406Z,95355.8
2022-07-25T05:50:17.861Z,95355.6
2022-07-25T05:51:20.362Z,95359.7
2022-07-25T05:52:22.555Z,95356.2
2022-07-25T05:53:24.481Z,95356.2
2022-07-25T05:54:29.052Z,95356.6
2022-07-25T05:55:31.005Z,95356.3
2022-07-25T05:56:33.474Z,95357.1
2022-07-25T05:57:35.411Z,95350.7
2022-07-25T05:58:37.887Z,95354.8
2022-07-25T05:59:40.108Z,95359.4
2022-07-25T06:00:42.290Z,95359.9
2022-07-25T06:01:45.498Z,95357.6
2022-07-25T06:02:49.025Z,95356.3
2022-07-25T06:03:51.762Z,95354.7
2022-07-25T06:04:54.228Z,95349.6
2022-07-25T06:05:56.750Z,95352.2
2022-07-25T06:06:59.230Z,95352.6
2022-07-25T06:08:01.167Z,95351.4
2022-07-25T06:10:08.671Z,95345.5
2022-07-25T06:11:10.874Z,95348.8
2022-07-25T06:12:12.331Z,95345
2022-07-25T06:13:16.167Z,95343.4
2022-07-25T06:14:19.364Z,95345.2
2022-07-25T06:15:28.942Z,95344.7
2022-07-25T06:16:32.141Z,95344.7
2022-07-25T06:17:34.368Z,95347.4
2022-07-25T06:18:36.570Z,95352.8
2022-07-25T06:19:38.770Z,95348.3
2022-07-25T06:20:40.698Z,95346.8
2022-07-25T06:21:42.058Z,95351.2
2022-07-25T06:22:44.539Z,95353
2022-07-25T06:23:46.193Z,95348.3
2022-07-25T06:24:48.102Z,95350.3
2022-07-25T06:25:51.903Z,95350.8
2022-07-25T06:26:54.111Z,95354
2022-07-25T06:27:56.310Z,95350.4
2022-07-25T06:28:58.800Z,95351.9
2022-07-25T06:30:00.997Z,95350.9
2022-07-25T06:31:03.479Z,95351.6
2022-07-25T06:32:05.732Z,95351.7
2022-07-25T06:33:07.662Z,95350.4
2022-07-25T06:34:11.672Z,95347
2022-07-25T06:35:14.360Z,95346.5
2022-07-25T06:36:16.534Z,95341.2
2022-07-25T06:37:18.475Z,95343.4
2022-07-25T06:38:20.964Z,95343.2
2022-07-25T06:39:22.922Z,95345.1
2022-07-25T06:40:25.583Z,95346.7
2022-07-25T06:41:28.167Z,95341.1
2022-07-25T06:42:30.446Z,95339.4
2022-07-25T06:43:32.944Z,95338.6
2022-07-25T06:44:35.167Z,95341.9
2022-07-25T06:45:37.667Z,95339.7
2022-07-25T06:46:40.377Z,95339
2022-07-25T06:47:42.426Z,95336.3
2022-07-25T06:48:44.389Z,95337.3
2022-07-25T06:49:46.719Z,95338
2022-07-25T06:50:49.246Z,95339.4
2022-07-25T06:51:51.494Z,95339.5
2022-07-25T06:52:54.007Z,95336.7
2022-07-25T06:53:56.513Z,95339.5
2022-07-25T06:54:58.728Z,95333.3
2022-07-25T06:56:00.668Z,95331.9
2022-07-25T06:57:02.878Z,95329.2
2022-07-25T06:58:04.799Z,95331.7
2022-07-25T06:59:07.013Z,95329.1
2022-07-25T07:00:09.496Z,95327.5
2022-07-25T07:01:12.142Z,95329.2
2022-07-25T07:02:14.859Z,95324.3
2022-07-25T07:03:17.251Z,95322.6
2022-07-25T07:04:19.568Z,95323.2
2022-07-25T07:05:21.777Z,95322.2
2022-07-25T07:06:25.538Z,95318.3
2022-07-25T07:07:28.031Z,95320.7
2022-07-25T07:08:29.949Z,95318.6
2022-07-25T07:09:32.488Z,95319.6
2022-07-25T07:10:34.962Z,95318.1
2022-07-25T07:11:37.466Z,95318.7
2022-07-25T07:12:41.628Z,95321
2022-07-25T07:13:44.386Z,95319.6
2022-07-25T07:14:46.875Z,95321.5
2022-07-25T07:15:49.183Z,95320.9
2022-07-25T07:16:51.177Z,95318.9
2022-07-25T07:17:53.665Z,95322.6
2022-07-25T07:18:56.132Z,95317.7
2022-07-25T07:19:58.934Z,95316.3
2022-07-25T07:21:01.414Z,95318.2
2022-07-25T07:22:05.160Z,95318.2
2022-07-25T07:25:22.882Z,95317.3
2022-07-25T07:26:24.833Z,95314.5
2022-07-25T07:27:27.034Z,95319.6
2022-07-25T07:28:28.948Z,95312.5
2022-07-25T07:29:31.422Z,95316.1
2022-07-25T07:31:38.655Z,95316.7
2022-07-25T07:32:40.914Z,95314.3
2022-07-25T07:33:42.886Z,95316.4
2022-07-25T07:34:45.096Z,95314.7
2022-07-25T07:35:47.351Z,95315.6
2022-07-25T07:36:49.563Z,95309.9
2022-07-25T07:37:51.817Z,95311.5
2022-07-25T07:38:54.048Z,95307.5
2022-07-25T07:39:56.274Z,95307.6
2022-07-25T07:40:58.211Z,95304.9
2022-07-25T07:42:00.690Z,95307.1
2022-07-25T07:43:02.927Z,95306.9
2022-07-25T07:44:05.135Z,95308.4
2022-07-25T07:45:07.363Z,95305.8
2022-07-25T07:46:09.843Z,95309.4
2022-07-25T07:48:17.435Z,95301.1
2022-07-25T07:49:20.404Z,95303.9
2022-07-25T07:50:23.100Z,95306.2
2022-07-25T07:51:25.046Z,95307.1
2022-07-25T07:52:27.225Z,95309.2
2022-07-25T07:53:29.707Z,95307.9
2022-07-25T07:54:31.650Z,95307.4
2022-07-25T07:55:34.194Z,95306.5
2022-07-25T07:56:36.108Z,95307.7
2022-07-25T07:57:37.812Z,95307.2
2022-07-25T07:58:39.786Z,95304
2022-07-25T07:59:42.005Z,95299.2
2022-07-25T08:00:44.220Z,95299.4
2022-07-25T08:01:47.056Z,95302.6
2022-07-25T08:02:49.485Z,95300.2
2022-07-25T08:03:51.538Z,95299.7
2022-07-25T08:04:54.019Z,95301.8
2022-07-25T08:05:56.529Z,95298
2022-07-25T08:06:59.016Z,95297.8
2022-07-25T08:08:01.522Z,95296.3
2022-07-25T08:09:05.075Z,95294
2022-07-25T08:10:08.172Z,95297.6
2022-07-25T08:11:10.391Z,95297.3
2022-07-25T08:12:12.051Z,95292.8
2022-07-25T08:13:14.531Z,95294.9
2022-07-25T08:14:17.022Z,95293.9
2022-07-25T08:15:19.217Z,95290.2
2022-07-25T08:16:22.286Z,95295.4
2022-07-25T08:18:29.695Z,95291.9
2022-07-25T08:19:32.004Z,95292.1
2022-07-25T08:21:39.491Z,95289.5
2022-07-25T08:22:41.149Z,95289.7
2022-07-25T08:23:43.374Z,95290.7
2022-07-25T08:24:45.976Z,95286.9
2022-07-25T08:25:48.180Z,95284.4
2022-07-25T08:26:50.461Z,95284.3
2022-07-25T08:27:52.949Z,95282.9
2022-07-25T08:30:00.440Z,95282.5
2022-07-25T08:31:03.463Z,95277.8
2022-07-25T08:32:05.841Z,95277.3
2022-07-25T08:33:07.779Z,95277.7
2022-07-25T08:34:12.474Z,95275.8
2022-07-25T08:35:14.686Z,95280
2022-07-25T08:36:17.155Z,95279.7
2022-07-25T08:37:19.343Z,95278.2
2022-07-25T08:38:21.818Z,95274.7
2022-07-25T08:39:24.012Z,95275.6
2022-07-25T08:40:26.198Z,95276.3
2022-07-25T08:41:28.406Z,95273.9
2022-07-25T08:42:30.629Z,95271.9
2022-07-25T08:43:33.160Z,95275
2022-07-25T08:44:35.365Z,95276.1
2022-07-25T08:45:37.579Z,95275.3
2022-07-25T08:46:40.111Z,95271.9
2022-07-25T08:47:42.483Z,95271.5
2022-07-25T08:48:44.969Z,95279
2022-07-25T08:49:47.326Z,95273.6
2022-07-25T08:50:48.982Z,95276
2022-07-25T08:51:53.400Z,95272
2022-07-25T08:54:00.393Z,95271.3
2022-07-25T08:55:03.257Z,95281.8
2022-07-25T08:57:10.734Z,95268.2
2022-07-25T08:58:12.954Z,95269.8
2022-07-25T08:59:15.418Z,95270.3
2022-07-25T09:00:17.867Z,95270.3
2022-07-25T09:01:20.654Z,95269.1
2022-07-25T09:02:23.961Z,95264.1
2022-07-25T09:03:27.056Z,95260.1
2022-07-25T09:04:29.389Z,95262.8
2022-07-25T09:05:31.902Z,95263.9
2022-07-25T09:06:34.384Z,95263.7
2022-07-25T09:07:36.587Z,95260.5
2022-07-25T09:08:38.805Z,95261.2
2022-07-25T09:09:40.993Z,95258.4
2022-07-25T09:10:43.500Z,95257.7
2022-07-25T09:11:45.989Z,95259.9
2022-07-25T09:12:48.199Z,95259.2
2022-07-25T09:13:51.696Z,95256.7
2022-07-25T09:14:54.808Z,95255.9
2022-07-25T09:15:58.656Z,95262.4
2022-07-25T09:17:01.520Z,95258.2
2022-07-25T09:19:12.593Z,95259.2
2022-07-25T09:21:20.084Z,95259.8
2022-07-25T09:22:22.568Z,95256.8
2022-07-25T09:23:24.769Z,95257.7
2022-07-25T09:24:26.950Z,95259.5
2022-07-25T09:25:29.152Z,95261.6
2022-07-25T09:26:31.689Z,95256.5
2022-07-25T09:27:34.186Z,95260
2022-07-25T09:28:36.674Z,95260.6
2022-07-25T09:29:39.149Z,95266.4
2022-07-25T09:30:41.836Z,95263.6
2022-07-25T09:31:44.617Z,95261.6
2022-07-25T09:32:47.247Z,95258.8
2022-07-25T09:33:49.177Z,95259.7
2022-07-25T09:34:51.414Z,95263.6
2022-07-25T09:35:53.627Z,95256.8
2022-07-25T09:36:56.153Z,95258.2
2022-07-25T09:37:58.361Z,95261.3
2022-07-25T09:39:00.273Z,95253.6
2022-07-25T09:40:02.767Z,95251.9
2022-07-25T09:41:04.719Z,95259.5
2022-07-25T09:42:06.918Z,95257.2
2022-07-25T09:43:08.875Z,95253.1
2022-07-25T09:44:11.670Z,95257.3
2022-07-25T09:45:14.382Z,95249.7
2022-07-25T09:46:16.890Z,95257
2022-07-25T09:47:19.634Z,95250.8
2022-07-25T09:48:21.858Z,95253.7
2022-07-25T09:49:23.774Z,95252.7
2022-07-25T09:50:26.244Z,95248.8
2022-07-25T09:51:28.207Z,95243.3
2022-07-25T09:52:30.377Z,95243.5
2022-07-25T09:53:32.314Z,95242.3
2022-07-25T09:54:34.511Z,95242.7
2022-07-25T09:55:36.721Z,95243.1
2022-07-25T09:56:38.925Z,95243.9
2022-07-25T09:57:41.143Z,95241
2022-07-25T09:58:42.780Z,95240.5
2022-07-25T09:59:45.295Z,95243.6
2022-07-25T10:00:47.567Z,95250.4
2022-07-25T10:01:50.402Z,95249.6
2022-07-25T10:02:53.421Z,95247.2
2022-07-25T10:03:55.790Z,95239.1
2022-07-25T10:04:57.982Z,95240.9
2022-07-25T10:05:59.917Z,95236.9
2022-07-25T10:07:02.129Z,95235
2022-07-25T10:08:04.314Z,95235.9
2022-07-25T10:09:06.795Z,95240.5
2022-07-25T10:10:09.277Z,95241.6
2022-07-25T10:11:11.190Z,95238.3
2022-07-25T10:12:13.134Z,95238
2022-07-25T10:13:15.419Z,95238.1
2022-07-25T10:14:17.653Z,95226
2022-07-25T10:15:20.147Z,95227
2022-07-25T10:16:22.414Z,95228.3
2022-07-25T10:17:25.328Z,95229.8
2022-07-25T10:18:27.680Z,95232.1
2022-07-25T10:19:29.899Z,95224.9
2022-07-25T10:20:31.587Z,95215.5
2022-07-25T10:21:33.522Z,95226.6
2022-07-25T10:23:40.440Z,95229.9
2022-07-25T10:24:42.656Z,95222.6
2022-07-25T10:26:50.123Z,95222.9
2022-07-25T10:27:52.338Z,95221.3
2022-07-25T10:28:54.550Z,95220.7
2022-07-25T10:29:56.776Z,95219
2022-07-25T10:30:59.223Z,95218.7
2022-07-25T10:32:01.472Z,95218.4
2022-07-25T10:33:03.681Z,95216.9
2022-07-25T10:34:08.436Z,95217.7
2022-07-25T10:35:11.244Z,95216.8
2022-07-25T10:36:13.463Z,95210.6
2022-07-25T10:37:15.393Z,95209.1
2022-07-25T10:38:17.628Z,95207.8
2022-07-25T10:39:19.828Z,95211.1
2022-07-25T10:40:22.048Z,95212.1
2022-07-25T10:41:23.968Z,95202.4
2022-07-25T10:42:25.912Z,95208.1
2022-07-25T10:43:28.116Z,95204.7
2022-07-25T10:44:30.588Z,95206.6
2022-07-25T10:46:37.882Z,95205.7
2022-07-25T10:47:40.512Z,95209.1
2022-07-25T10:48:43.336Z,95201.4
2022-07-25T10:51:55.860Z,95195.5
2022-07-25T10:52:58.338Z,95204
2022-07-25T10:54:00.540Z,95194.4
2022-07-25T10:55:02.476Z,95197.5
2022-07-25T10:57:09.957Z,95196.8
2022-07-25T10:59:17.449Z,95197.2
2022-07-25T11:00:19.653Z,95196.5
2022-07-25T11:01:22.249Z,95204.3
2022-07-25T11:02:24.898Z,95196.7
2022-07-25T11:03:26.962Z,95199.1
2022-07-25T11:04:29.223Z,95201.2
2022-07-25T11:05:31.708Z,95197.5
2022-07-25T11:06:34.201Z,95195.5
2022-07-25T11:07:36.742Z,95202.6
2022-07-25T11:08:39.218Z,95202.4
2022-07-25T11:09:41.420Z,95207.1
2022-07-25T11:10:43.616Z,95210.4
2022-07-25T11:11:45.810Z,95200.7
2022-07-25T11:12:48.038Z,95201.9
2022-07-25T11:13:49.967Z,95187.6
2022-07-25T11:14:52.187Z,95189.4
2022-07-25T11:15:54.383Z,95193.8
2022-07-25T11:16:57.430Z,95188.1
2022-07-25T11:17:59.803Z,95188.1
2022-07-25T11:19:01.747Z,95189.1
2022-07-25T11:20:03.973Z,95187.9
2022-07-25T11:21:08.271Z,95189.2
2022-07-25T11:22:10.206Z,95192.8
2022-07-25T11:23:12.399Z,95193.4
2022-07-25T11:24:14.613Z,95191.4
2022-07-25T11:25:16.548Z,95182.3
2022-07-25T11:26:18.730Z,95185
2022-07-25T11:27:20.941Z,95184.3
2022-07-25T11:28:23.163Z,95180.8
2022-07-25T11:29:25.100Z,95177.9
2022-07-25T11:30:27.572Z,95188.4
2022-07-25T11:31:30.024Z,95184.8
2022-07-25T11:32:32.320Z,95181.7
2022-07-25T11:34:41.544Z,95188.1
2022-07-25T11:35:45.981Z,95188.3
2022-07-25T11:36:49.429Z,95190.1
2022-07-25T11:37:50.785Z,95184.4
2022-07-25T11:38:53.254Z,95169.5
2022-07-25T11:39:57.934Z,95184.5
2022-07-25T11:41:00.440Z,95170.2
2022-07-25T11:42:02.645Z,95169.3
2022-07-25T11:43:04.846Z,95166.3
2022-07-25T11:44:08.373Z,95165.8
2022-07-25T11:45:10.559Z,95167.6
2022-07-25T11:46:13.318Z,95166.6
2022-07-25T11:47:15.655Z,95169.7
2022-07-25T11:48:17.623Z,95165.5
2022-07-25T11:49:20.140Z,95169.1
2022-07-25T11:50:22.775Z,95159.7
2022-07-25T11:51:26.045Z,95178
2022-07-25T11:52:28.052Z,95168.9
2022-07-25T11:53:29.978Z,95165.1
2022-07-25T11:54:32.187Z,95175.4
2022-07-25T11:55:34.657Z,95178
2022-07-25T11:57:41.862Z,95169.1
2022-07-25T11:58:43.792Z,95173.4
2022-07-25T11:59:45.975Z,95172.4
2022-07-25T12:00:48.270Z,95164.5
2022-07-25T12:01:51.031Z,95167
2022-07-25T12:02:54.153Z,95166.4
2022-07-25T12:03:56.782Z,95166.4
2022-07-25T12:04:59.274Z,95168.5
2022-07-25T12:06:01.762Z,95166.5
2022-07-25T12:07:03.991Z,95160.4
2022-07-25T12:08:06.465Z,95184.8
2022-07-25T12:09:11.255Z,95164.3
2022-07-25T12:10:16.203Z,95163
2022-07-25T12:11:18.125Z,95157.6
2022-07-25T12:12:20.331Z,95163.8
2022-07-25T12:13:22.274Z,95160.2
2022-07-25T12:14:24.765Z,95158.7
2022-07-25T12:15:26.718Z,95161.5
2022-07-25T12:16:29.283Z,95153.1
2022-07-25T12:17:31.580Z,95153.1
2022-07-25T12:18:34.079Z,95156
2022-07-25T12:19:35.996Z,95153.3
2022-07-25T12:20:38.481Z,95161.7
2022-07-25T12:21:40.385Z,95153.8
2022-07-25T12:22:42.664Z,95146.7
2022-07-25T12:23:45.169Z,95146.9
2022-07-25T12:24:47.661Z,95148.7
2022-07-25T12:25:50.147Z,95141.9
2022-07-25T12:26:52.617Z,95150.5
2022-07-25T12:27:55.123Z,95151.3
2022-07-25T12:28:57.602Z,95157.2
2022-07-25T12:30:00.172Z,95149.5
2022-07-25T12:31:02.375Z,95143.4
2022-07-25T12:32:04.139Z,95145.5
2022-07-25T12:33:06.342Z,95143.4
2022-07-25T12:34:08.289Z,95145
2022-07-25T12:35:10.491Z,95139.4
2022-07-25T12:36:12.972Z,95147.5
2022-07-25T12:37:15.555Z,95133.1
2022-07-25T12:38:18.157Z,95140.3
2022-07-25T12:39:20.629Z,95145.4
2022-07-25T12:40:22.845Z,95145
2022-07-25T12:41:25.338Z,95142.3
2022-07-25T12:42:27.586Z,95145.2
2022-07-25T12:43:29.772Z,95147.1
2022-07-25T12:44:31.707Z,95141.3
2022-07-25T12:45:34.159Z,95131.5
2022-07-25T12:46:36.875Z,95134.8
2022-07-25T12:47:39.078Z,95131.8
2022-07-25T12:48:41.483Z,95141.7
2022-07-25T12:49:43.802Z,95135.5
2022-07-25T12:50:46.024Z,95129.9
2022-07-25T12:51:48.247Z,95133
2022-07-25T12:52:50.467Z,95143.6
2022-07-25T12:53:52.953Z,95140.5
2022-07-25T12:54:55.150Z,95129.2
2022-07-25T12:55:57.368Z,95132.3
2022-07-25T12:56:59.851Z,95122.4
2022-07-25T12:58:02.111Z,95123.4
2022-07-25T12:59:05.940Z,95130.9
2022-07-25T13:00:09.039Z,95125.5
2022-07-25T13:01:11.545Z,95128.4
2022-07-25T13:02:14.149Z,95126.3
2022-07-25T13:03:16.724Z,95125.4
2022-07-25T13:04:19.222Z,95122.4
2022-07-25T13:05:21.715Z,95127.4
2022-07-25T13:06:23.914Z,95121.9
2022-07-25T13:07:26.135Z,95114
2022-07-25T13:08:28.102Z,95121.4
2022-07-25T13:09:30.312Z,95124.2
2022-07-25T13:10:32.575Z,95119.3
2022-07-25T13:11:35.055Z,95120.9
2022-07-25T13:12:36.720Z,95113.3
2022-07-25T13:13:38.922Z,95110.1
2022-07-25T13:14:41.139Z,95120.5